Pagina principale
METAR-TAF:

METAR-TAF

Aeroporti :

Mendoza, Argentina

latitudine: 32-50S, longitudine: 068-47W, altezza: 705 m

Osservazione

Il bollettino è stato emesso 50 minuti fa, alle 05:00 UTC
Vento 2 kt da sud
Temperature 22°C
Umidità 41%
Pressione 1004 hPa
Visibilità 10 km o più
nessuna nube inferiore a 1500 m e nessun cumulonembo

METAR: SAME 160500Z 18002KT CAVOK 22/08 Q1004

Ora: 02:50 (05:50 UTC)

Previsione

Il bollettino è stato emesso 6 ore e 50 minuti fa, alle 23:00 UTC
Previsione valida dal 16 alle 00 UTC al 16 alle 24 UTC
Vento 15 kt da nord-est
Visibilità 10 km o più
nessuna nube inferiore a 1500 m e nessun cumulonembo
Evoluzione graduale
dal 16 alle 18 UTC al 16 alle 20 UTC
Vento 10 kt da ovest con raffiche fino a 25 kt
Visibilità: 6000 m
Poco nuvoloso ad un'altezza di 4000 ft
Nubi sparse ad un'altezza di 7000 ft
mulinelli di polvere o sabbia

TAF: SAME 152300Z 1600/1624 05015KT CAVOK TN14/1610Z TX33/1620Z BECMG 1618/1620 27010G25KT 6000 PO FEW040 SCT070

Osservazioni e previsioni meteorologiche di più di 4000 aeroporti (messaggi METAR e TAF).

Le stazioni disponibili sono rappresentate dai dischi gialli e rossi sulla carta.

Puntare il mouse per vedere il nome della stazione.

Clicca sopra per visualizzare le osservazioni e previsioni meteorologiche.

Per cambiare la mappa : fare clic sui pulsanti verdi con una croce nera per ingrandire, il pulsante verde con un trattino per diminuire, o sulla freccia verde per le mappe adiacenti.


METAR-TAF: